createdAt,value
2018-06-10T00:01:39.292Z,13.03
2018-06-10T00:04:07.972Z,14.37
2018-06-10T00:06:36.741Z,13.73
2018-06-10T00:09:07.674Z,15.47
2018-06-10T00:11:36.371Z,14.40
2018-06-10T00:14:05.307Z,13.93
2018-06-10T00:16:33.972Z,18.10
2018-06-10T00:19:02.821Z,16.10
2018-06-10T00:21:31.583Z,13.40
2018-06-10T00:24:00.835Z,17.47
2018-06-10T00:26:29.859Z,17.30
2018-06-10T00:29:04.078Z,14.23
2018-06-10T00:31:33.071Z,17.87
2018-06-10T00:34:02.005Z,17.73
2018-06-10T00:36:31.013Z,16.23
2018-06-10T00:38:59.816Z,15.87
2018-06-10T00:41:28.748Z,15.20
2018-06-10T00:43:57.731Z,15.80
2018-06-10T00:46:26.805Z,14.73
2018-06-10T00:48:55.547Z,14.17
2018-06-10T00:51:24.579Z,17.23
2018-06-10T00:53:53.329Z,16.13
2018-06-10T00:56:34.008Z,14.70
2018-06-10T00:59:02.694Z,19.87
2018-06-10T01:01:31.715Z,15.83
2018-06-10T01:04:00.425Z,14.83
2018-06-10T01:06:30.142Z,14.90
2018-06-10T01:08:59.344Z,14.33
2018-06-10T01:11:28.050Z,13.20
2018-06-10T01:13:57.689Z,15.87
2018-06-10T01:16:26.513Z,15.33
2018-06-10T01:18:55.228Z,16.77
2018-06-10T01:21:23.909Z,16.37
2018-06-10T01:23:52.582Z,15.33
2018-06-10T01:26:57.201Z,16.20
2018-06-10T01:29:26.411Z,18.47
2018-06-10T01:31:55.438Z,16.43
2018-06-10T01:34:24.442Z,16.67
2018-06-10T01:36:54.471Z,15.13
2018-06-10T01:39:23.436Z,16.67
2018-06-10T01:41:52.328Z,15.17
2018-06-10T01:44:21.012Z,14.80
2018-06-10T01:46:50.280Z,14.63
2018-06-10T01:49:19.176Z,14.90
2018-06-10T01:51:48.183Z,16.87
2018-06-10T01:54:17.166Z,14.77
2018-06-10T01:56:45.986Z,13.47
2018-06-10T01:59:14.997Z,14.53
2018-06-10T02:01:45.854Z,14.07
2018-06-10T02:04:14.780Z,19.00
2018-06-10T02:06:43.777Z,17.57
2018-06-10T02:09:12.493Z,17.57
2018-06-10T02:11:41.193Z,15.30
2018-06-10T02:14:09.936Z,13.63
2018-06-10T02:16:38.789Z,16.67
2018-06-10T02:19:07.705Z,14.63
2018-06-10T02:21:36.746Z,16.03
2018-06-10T02:24:05.807Z,18.00
2018-06-10T02:26:34.647Z,13.30
2018-06-10T02:29:03.408Z,15.77
2018-06-10T02:31:32.256Z,14.73
2018-06-10T02:34:01.303Z,14.57
2018-06-10T02:36:30.311Z,12.90
2018-06-10T02:38:59.667Z,17.07
2018-06-10T02:41:28.520Z,12.60
2018-06-10T02:43:57.592Z,15.43
2018-06-10T02:46:26.133Z,18.70
2018-06-10T02:48:54.963Z,13.13
2018-06-10T02:51:24.059Z,13.23
2018-06-10T02:53:52.756Z,15.20
2018-06-10T02:56:21.702Z,19.93
2018-06-10T02:58:56.231Z,15.93
2018-06-10T03:01:25.028Z,11.27
2018-06-10T03:03:54.046Z,15.73
2018-06-10T03:06:23.250Z,13.03
2018-06-10T03:08:52.429Z,13.77
2018-06-10T03:11:21.220Z,13.93
2018-06-10T03:13:50.369Z,15.87
2018-06-10T03:16:19.592Z,14.23
2018-06-10T03:18:48.669Z,13.50
2018-06-10T03:21:20.902Z,14.37
2018-06-10T03:23:50.059Z,14.97
2018-06-10T03:26:19.153Z,15.80
2018-06-10T03:28:48.196Z,17.53
2018-06-10T03:31:17.174Z,12.17
2018-06-10T03:33:46.954Z,12.63
2018-06-10T03:36:16.249Z,11.87
2018-06-10T03:38:45.697Z,13.97
2018-06-10T03:41:16.405Z,12.23
2018-06-10T03:43:45.250Z,15.00
2018-06-10T03:46:14.220Z,14.60
2018-06-10T03:48:42.998Z,13.20
2018-06-10T03:51:12.634Z,13.48
2018-06-10T03:53:41.568Z,15.47
2018-06-10T03:56:10.458Z,18.10
2018-06-10T03:58:39.134Z,13.97
2018-06-10T04:01:07.805Z,11.83
2018-06-10T04:03:36.820Z,13.00
2018-06-10T04:06:05.529Z,13.27
2018-06-10T04:08:34.388Z,14.17
2018-06-10T04:11:03.403Z,18.13
2018-06-10T04:13:32.361Z,12.67
2018-06-10T04:16:01.198Z,12.23
2018-06-10T04:18:29.913Z,13.47
2018-06-10T04:20:58.847Z,10.90
2018-06-10T04:23:27.740Z,12.63
2018-06-10T04:25:56.737Z,14.10
2018-06-10T04:28:25.965Z,13.83
2018-06-10T04:30:55.028Z,13.67
2018-06-10T04:33:24.329Z,12.73
2018-06-10T04:35:53.405Z,9.77
2018-06-10T04:38:22.602Z,16.20
2018-06-10T04:40:51.516Z,11.47
2018-06-10T04:43:20.325Z,14.23
2018-06-10T04:45:49.145Z,11.60
2018-06-10T04:48:18.086Z,13.93
2018-06-10T04:50:46.869Z,12.83
2018-06-10T04:53:15.901Z,12.57
2018-06-10T04:55:44.601Z,12.53
2018-06-10T04:58:13.011Z,10.10
2018-06-10T05:00:42.231Z,13.33
2018-06-10T05:03:11.176Z,10.87
2018-06-10T05:05:39.686Z,11.27
2018-06-10T05:08:08.600Z,9.53
2018-06-10T05:10:37.448Z,11.00
2018-06-10T05:13:06.604Z,10.47
2018-06-10T05:15:35.521Z,10.37
2018-06-10T05:18:04.521Z,14.23
2018-06-10T05:20:33.507Z,12.13
2018-06-10T05:23:02.299Z,13.07
2018-06-10T05:25:31.350Z,11.43
2018-06-10T05:28:00.283Z,14.10
2018-06-10T05:30:29.147Z,13.13
2018-06-10T05:32:58.047Z,12.80
2018-06-10T05:35:26.784Z,14.07
2018-06-10T05:37:55.643Z,14.13
2018-06-10T05:40:24.843Z,14.17
2018-06-10T05:42:53.572Z,14.20
2018-06-10T05:45:22.701Z,11.87
2018-06-10T05:47:51.665Z,9.97
2018-06-10T05:50:20.982Z,13.50
2018-06-10T05:52:50.080Z,11.10
2018-06-10T05:55:19.343Z,13.73
2018-06-10T05:57:48.306Z,13.00
2018-06-10T06:00:17.267Z,16.37
2018-06-10T06:02:46.198Z,14.80
2018-06-10T06:05:15.354Z,13.07
2018-06-10T06:07:46.927Z,12.63
2018-06-10T06:10:15.771Z,12.67
2018-06-10T06:12:44.413Z,14.33
2018-06-10T06:15:13.339Z,14.40
2018-06-10T06:17:42.370Z,11.57
2018-06-10T06:20:12.337Z,11.47
2018-06-10T06:22:41.226Z,15.77
2018-06-10T06:25:10.241Z,15.93
2018-06-10T06:27:39.128Z,14.07
2018-06-10T06:30:08.205Z,9.80
2018-06-10T06:32:37.155Z,13.27
2018-06-10T06:35:08.217Z,16.13
2018-06-10T06:37:37.491Z,14.47
2018-06-10T06:40:06.356Z,12.27
2018-06-10T06:42:35.140Z,13.37
2018-06-10T06:45:05.372Z,13.63
2018-06-10T06:47:34.336Z,15.23
2018-06-10T06:50:04.050Z,12.07
2018-06-10T06:52:33.150Z,11.20
2018-06-10T06:55:02.429Z,16.90
2018-06-10T06:57:31.334Z,17.03
2018-06-10T07:00:00.209Z,14.30
2018-06-10T07:02:29.012Z,15.10
2018-06-10T07:04:59.477Z,16.53
2018-06-10T07:07:31.101Z,13.30
2018-06-10T07:09:59.893Z,13.37
2018-06-10T07:12:32.087Z,11.90
2018-06-10T07:15:01.630Z,11.77
2018-06-10T07:17:31.002Z,12.93
2018-06-10T07:20:00.163Z,13.07
2018-06-10T07:22:35.917Z,14.97
2018-06-10T07:25:07.734Z,15.47
2018-06-10T07:27:38.169Z,16.00
2018-06-10T07:30:07.041Z,14.53
2018-06-10T07:32:35.890Z,16.73
2018-06-10T07:35:05.932Z,13.40
2018-06-10T07:37:35.069Z,15.47
2018-06-10T07:40:04.276Z,13.80
2018-06-10T07:42:40.345Z,13.20
2018-06-10T07:45:09.763Z,15.40
2018-06-10T07:47:38.913Z,12.77
2018-06-10T07:50:08.820Z,12.90
2018-06-10T07:52:37.817Z,12.80
2018-06-10T07:55:06.740Z,14.00
2018-06-10T07:57:36.789Z,13.87
2018-06-10T08:00:11.697Z,12.67
2018-06-10T08:02:40.832Z,13.70
2018-06-10T08:05:09.671Z,16.43
2018-06-10T08:07:38.847Z,13.37
2018-06-10T08:10:07.872Z,11.70
2018-06-10T08:12:38.783Z,13.00
2018-06-10T08:15:07.667Z,11.10
2018-06-10T08:17:36.524Z,12.73
2018-06-10T08:20:05.485Z,15.23
2018-06-10T08:22:34.469Z,16.87
2018-06-10T08:25:03.440Z,12.87
2018-06-10T08:27:32.504Z,15.03
2018-06-10T08:30:01.362Z,15.20
2018-06-10T08:32:30.353Z,12.43
2018-06-10T08:34:59.224Z,14.13
2018-06-10T08:37:28.326Z,14.53
2018-06-10T08:39:57.407Z,13.07
2018-06-10T08:42:27.740Z,15.53
2018-06-10T08:44:56.562Z,12.97
2018-06-10T08:47:25.462Z,15.20
2018-06-10T08:49:54.604Z,12.20
2018-06-10T08:52:23.534Z,15.93
2018-06-10T08:54:52.344Z,11.63
2018-06-10T08:57:21.279Z,12.73
2018-06-10T08:59:50.141Z,14.87
2018-06-10T09:02:19.415Z,12.50
2018-06-10T09:04:48.216Z,13.87
2018-06-10T09:07:17.100Z,15.20
2018-06-10T09:09:45.980Z,12.43
2018-06-10T09:12:15.073Z,12.20
2018-06-10T09:14:44.001Z,15.23
2018-06-10T09:17:12.845Z,13.97
2018-06-10T09:19:41.646Z,16.23
2018-06-10T09:22:10.497Z,12.55
2018-06-10T09:24:39.443Z,15.03
2018-06-10T09:27:08.382Z,13.63
2018-06-10T09:29:37.686Z,13.87
2018-06-10T09:32:07.088Z,11.97
2018-06-10T09:34:36.118Z,11.67
2018-06-10T09:37:05.042Z,11.75
2018-06-10T09:39:34.225Z,12.83
2018-06-10T09:42:03.422Z,16.97
2018-06-10T09:44:31.794Z,16.17
2018-06-10T09:48:18.820Z,12.27
2018-06-10T09:50:47.585Z,12.90
2018-06-10T09:53:16.551Z,12.85
2018-06-10T09:55:45.643Z,10.25
2018-06-10T09:58:14.666Z,15.35
2018-06-10T10:00:43.772Z,13.43
2018-06-10T10:03:12.943Z,11.33
2018-06-10T10:05:41.678Z,12.67
2018-06-10T10:08:10.563Z,11.83
2018-06-10T10:10:39.852Z,12.63
2018-06-10T10:13:09.013Z,13.77
2018-06-10T10:15:38.045Z,9.03
2018-06-10T10:18:06.897Z,11.57
2018-06-10T10:20:36.031Z,10.77
2018-06-10T10:23:04.899Z,13.30
2018-06-10T10:25:33.681Z,10.38
2018-06-10T10:28:02.729Z,10.68
2018-06-10T10:30:31.796Z,11.35
2018-06-10T10:33:00.817Z,14.90
2018-06-10T10:35:29.854Z,12.60
2018-06-10T10:39:19.002Z,14.43
2018-06-10T10:41:48.284Z,11.70
2018-06-10T10:45:13.949Z,13.85
2018-06-10T10:53:05.848Z,14.23
2018-06-10T10:55:35.284Z,11.55
2018-06-10T10:58:04.247Z,11.90
2018-06-10T11:00:33.365Z,13.13
2018-06-10T11:03:02.183Z,14.43
2018-06-10T11:05:31.192Z,10.87
2018-06-10T11:08:00.903Z,10.93
2018-06-10T11:10:30.098Z,9.78
2018-06-10T11:12:59.094Z,10.95
2018-06-10T11:15:27.994Z,11.65
2018-06-10T11:17:56.955Z,8.07
2018-06-10T11:20:25.928Z,10.68
2018-06-10T11:22:54.763Z,9.83
2018-06-10T11:25:23.681Z,14.05
2018-06-10T11:27:52.749Z,13.40
2018-06-10T11:30:21.641Z,6.92
2018-06-10T11:33:01.258Z,10.45
2018-06-10T11:35:30.481Z,9.93
2018-06-10T11:37:59.534Z,9.33
2018-06-10T11:40:28.053Z,12.43
2018-06-10T11:42:57.460Z,8.50
2018-06-10T11:45:26.579Z,13.83
2018-06-10T11:47:55.680Z,10.80
2018-06-10T11:50:24.791Z,10.60
2018-06-10T11:52:53.691Z,11.00
2018-06-10T11:55:22.740Z,8.80
2018-06-10T11:57:51.757Z,12.37
2018-06-10T12:00:20.912Z,12.70
2018-06-10T12:02:49.866Z,10.03
2018-06-10T12:05:19.242Z,11.43
2018-06-10T12:07:48.692Z,11.22
2018-06-10T12:10:17.317Z,10.68
2018-06-10T12:12:46.344Z,8.60
2018-06-10T12:15:14.687Z,9.23
2018-06-10T12:17:43.523Z,9.78
2018-06-10T12:20:12.571Z,12.70
2018-06-10T12:22:41.544Z,15.58
2018-06-10T12:25:10.282Z,9.53
2018-06-10T12:27:38.984Z,9.90
2018-06-10T12:30:08.456Z,11.43
2018-06-10T12:32:37.478Z,12.15
2018-06-10T12:35:06.243Z,9.38
2018-06-10T12:37:35.628Z,9.15
2018-06-10T12:40:04.672Z,10.53
2018-06-10T12:42:33.668Z,14.15
2018-06-10T12:45:02.538Z,10.13
2018-06-10T12:47:31.552Z,10.55
2018-06-10T12:50:00.338Z,14.83
2018-06-10T12:52:28.964Z,15.68
2018-06-10T12:54:58.221Z,12.50
2018-06-10T12:57:26.972Z,12.35
2018-06-10T12:59:56.011Z,16.65
2018-06-10T13:02:25.086Z,10.05
2018-06-10T13:04:54.253Z,13.45
2018-06-10T13:07:23.041Z,9.75
2018-06-10T13:09:52.035Z,10.50
2018-06-10T13:12:20.982Z,10.32
2018-06-10T13:14:50.025Z,10.10
2018-06-10T13:17:19.034Z,10.13
2018-06-10T13:19:47.956Z,10.65
2018-06-10T13:22:16.834Z,12.43
2018-06-10T13:24:45.792Z,10.68
2018-06-10T13:27:14.719Z,10.93
2018-06-10T13:29:43.763Z,11.55
2018-06-10T13:32:12.468Z,12.85
2018-06-10T13:34:41.215Z,10.40
2018-06-10T13:37:10.442Z,11.30
2018-06-10T13:39:39.115Z,11.97
2018-06-10T13:42:08.147Z,10.45
2018-06-10T13:44:36.845Z,11.75
2018-06-10T13:47:05.858Z,14.15
2018-06-10T13:49:34.776Z,13.68
2018-06-10T13:52:03.842Z,11.35
2018-06-10T13:54:32.749Z,11.33
2018-06-10T13:57:01.783Z,12.28
2018-06-10T13:59:30.612Z,12.18
2018-06-10T14:01:59.415Z,10.18
2018-06-10T14:04:27.923Z,12.58
2018-06-10T14:06:56.737Z,10.48
2018-06-10T14:09:26.053Z,9.33
2018-06-10T14:11:55.033Z,9.15
2018-06-10T14:14:23.854Z,12.88
2018-06-10T14:16:52.636Z,13.70
2018-06-10T14:19:21.710Z,9.40
2018-06-10T14:21:50.626Z,9.80
2018-06-10T14:24:19.516Z,10.70
2018-06-10T14:26:48.409Z,11.08
2018-06-10T14:29:17.407Z,14.10
2018-06-10T14:31:46.396Z,12.98
2018-06-10T14:34:15.471Z,11.18
2018-06-10T14:36:44.385Z,10.63
2018-06-10T14:39:13.553Z,9.93
2018-06-10T14:41:42.474Z,8.98
2018-06-10T14:44:11.233Z,10.95
2018-06-10T14:46:39.987Z,10.68
2018-06-10T14:49:08.675Z,8.30
2018-06-10T14:51:37.429Z,9.80
2018-06-10T14:54:06.207Z,9.83
2018-06-10T14:56:35.283Z,10.20
2018-06-10T14:59:04.377Z,8.10
2018-06-10T15:01:33.289Z,7.72
2018-06-10T15:04:02.156Z,6.12
2018-06-10T15:06:31.185Z,11.50
2018-06-10T15:08:59.997Z,5.47
2018-06-10T15:11:29.014Z,9.00
2018-06-10T15:13:57.865Z,9.50
2018-06-10T15:16:26.673Z,5.50
2018-06-10T15:18:55.408Z,8.90
2018-06-10T15:21:24.624Z,9.65
2018-06-10T15:23:53.755Z,7.67
2018-06-10T15:26:22.438Z,8.60
2018-06-10T15:28:51.602Z,9.28
2018-06-10T15:31:20.954Z,12.13
2018-06-10T15:33:49.639Z,9.40
2018-06-10T15:36:18.829Z,8.45
2018-06-10T15:38:53.892Z,10.03
2018-06-10T15:41:22.987Z,8.85
2018-06-10T15:43:51.924Z,10.40
2018-06-10T15:46:20.648Z,10.60
2018-06-10T15:48:49.537Z,8.35
2018-06-10T15:51:18.605Z,8.05
2018-06-10T15:53:47.583Z,9.68
2018-06-10T15:56:16.659Z,6.55
2018-06-10T15:58:49.637Z,9.98
2018-06-10T16:01:22.305Z,10.03
2018-06-10T16:03:51.642Z,11.12
2018-06-10T16:06:20.737Z,8.33
2018-06-10T16:08:49.489Z,6.05
2018-06-10T16:11:18.337Z,11.05
2018-06-10T16:13:47.268Z,9.98
2018-06-10T16:16:16.421Z,12.05
2018-06-10T16:18:45.280Z,12.25
2018-06-10T16:21:14.255Z,10.23
2018-06-10T16:23:43.380Z,8.60
2018-06-10T16:26:12.265Z,12.30
2018-06-10T16:28:41.791Z,8.03
2018-06-10T16:31:10.466Z,7.50
2018-06-10T16:33:39.257Z,9.90
2018-06-10T16:36:08.340Z,9.50
2018-06-10T16:38:37.323Z,8.40
2018-06-10T16:41:06.438Z,7.40
2018-06-10T16:43:35.541Z,8.33
2018-06-10T16:46:04.532Z,7.58
2018-06-10T16:48:33.720Z,9.90
2018-06-10T16:51:02.874Z,9.23
2018-06-10T16:53:39.214Z,6.10
2018-06-10T16:56:08.484Z,7.10
2018-06-10T16:58:37.331Z,7.45
2018-06-10T17:01:07.298Z,8.83
2018-06-10T17:03:36.515Z,8.77
2018-06-10T17:06:06.390Z,7.30
2018-06-10T17:08:36.803Z,5.45
2018-06-10T17:11:06.254Z,6.47
2018-06-10T17:13:39.745Z,6.28
2018-06-10T17:16:09.626Z,5.95
2018-06-10T17:18:39.132Z,5.67
2018-06-10T17:21:08.340Z,4.77
2018-06-10T17:23:37.555Z,10.58
2018-06-10T17:26:06.374Z,6.60
2018-06-10T17:28:35.847Z,6.23
2018-06-10T17:31:05.096Z,6.63
2018-06-10T17:33:34.869Z,6.58
2018-06-10T17:36:04.060Z,5.65
2018-06-10T17:38:33.199Z,7.33
2018-06-10T17:41:02.221Z,5.03
2018-06-10T17:43:32.587Z,5.07
2018-06-10T17:46:04.304Z,7.05
2018-06-10T17:48:36.714Z,6.60
2018-06-10T17:51:09.720Z,6.87
2018-06-10T17:53:38.739Z,4.37
2018-06-10T17:56:07.719Z,9.50
2018-06-10T17:58:37.012Z,6.20
2018-06-10T18:01:05.765Z,7.00
2018-06-10T18:03:34.940Z,7.30
2018-06-10T18:06:05.376Z,7.22
2018-06-10T18:08:37.726Z,11.43
2018-06-10T18:11:06.484Z,8.57
2018-06-10T18:13:35.241Z,8.93
2018-06-10T18:16:04.302Z,8.47
2018-06-10T18:18:34.432Z,7.45
2018-06-10T18:21:03.398Z,8.57
2018-06-10T18:23:32.251Z,9.23
2018-06-10T18:26:01.019Z,8.60
2018-06-10T18:28:29.955Z,10.47
2018-06-10T18:30:58.757Z,11.43
2018-06-10T18:33:27.587Z,13.20
2018-06-10T18:35:56.439Z,14.60
2018-06-10T18:38:25.288Z,14.97
2018-06-10T18:40:54.316Z,13.43
2018-06-10T18:43:23.024Z,14.57
2018-06-10T18:45:51.913Z,13.67
2018-06-10T18:48:20.696Z,13.53
2018-06-10T18:50:49.587Z,15.37
2018-06-10T18:53:19.348Z,15.13
2018-06-10T18:55:48.378Z,16.63
2018-06-10T18:58:17.265Z,15.63
2018-06-10T19:00:46.061Z,15.60
2018-06-10T19:03:14.761Z,15.40
2018-06-10T19:05:43.549Z,17.03
2018-06-10T19:08:13.357Z,15.77
2018-06-10T19:10:42.203Z,16.77
2018-06-10T19:13:13.762Z,17.00
2018-06-10T19:15:42.862Z,19.97
2018-06-10T19:18:11.569Z,16.60
2018-06-10T19:20:41.452Z,17.00
2018-06-10T19:23:10.358Z,16.20
2018-06-10T19:25:39.406Z,17.67
2018-06-10T19:28:08.200Z,19.23
2018-06-10T19:30:37.042Z,20.40
2018-06-10T19:33:05.936Z,18.67
2018-06-10T19:35:34.673Z,19.07
2018-06-10T19:38:03.502Z,18.13
2018-06-10T19:40:32.241Z,18.63
2018-06-10T19:43:01.193Z,17.80
2018-06-10T19:45:29.979Z,17.50
2018-06-10T19:47:58.759Z,17.70
2018-06-10T19:50:27.506Z,16.23
2018-06-10T19:52:56.450Z,20.20
2018-06-10T19:55:25.153Z,20.67
2018-06-10T19:57:54.307Z,21.93
2018-06-10T20:00:23.438Z,13.63
2018-06-10T20:02:52.394Z,11.30
2018-06-10T20:05:21.184Z,12.33
2018-06-10T20:07:50.077Z,13.30
2018-06-10T20:10:19.114Z,14.00
2018-06-10T20:12:47.880Z,15.27
2018-06-10T20:15:16.725Z,15.83
2018-06-10T20:17:45.593Z,15.53
2018-06-10T20:20:14.745Z,16.17
2018-06-10T20:22:43.704Z,15.87
2018-06-10T20:25:19.382Z,16.03
2018-06-10T20:27:48.332Z,14.97
2018-06-10T20:30:17.188Z,17.60
2018-06-10T20:32:46.048Z,15.77
2018-06-10T20:35:14.871Z,17.20
2018-06-10T20:37:43.766Z,15.80
2018-06-10T20:40:12.832Z,17.70
2018-06-10T20:42:41.925Z,16.00
2018-06-10T20:45:10.919Z,15.87
2018-06-10T20:47:39.915Z,16.33
2018-06-10T20:50:08.804Z,16.13
2018-06-10T20:52:37.973Z,17.33
2018-06-10T20:55:06.896Z,16.90
2018-06-10T20:57:35.985Z,17.00
2018-06-10T21:00:04.992Z,18.00
2018-06-10T21:02:33.974Z,19.73
2018-06-10T21:05:02.722Z,18.73
2018-06-10T21:07:31.575Z,20.30
2018-06-10T21:10:00.472Z,20.50
2018-06-10T21:12:29.134Z,20.07
2018-06-10T21:14:58.663Z,20.03
2018-06-10T21:17:27.669Z,20.37
2018-06-10T21:19:56.730Z,21.00
2018-06-10T21:22:25.763Z,20.37
2018-06-10T21:24:54.540Z,18.83
2018-06-10T21:27:23.348Z,19.60
2018-06-10T21:29:52.497Z,20.53
2018-06-10T21:32:21.289Z,20.47
2018-06-10T21:34:50.036Z,20.10
2018-06-10T21:37:18.861Z,19.97
2018-06-10T21:39:47.757Z,19.50
2018-06-10T21:42:16.883Z,19.60
2018-06-10T21:44:45.641Z,19.00
2018-06-10T21:47:15.077Z,21.17
2018-06-10T21:49:44.037Z,18.93
2018-06-10T21:52:13.163Z,21.30
2018-06-10T21:54:41.881Z,20.73
2018-06-10T21:57:10.811Z,20.13
2018-06-10T21:59:39.806Z,19.90
2018-06-10T22:02:08.830Z,19.83
2018-06-10T22:04:37.825Z,20.60
2018-06-10T22:07:06.592Z,18.87
2018-06-10T22:09:35.724Z,20.13
2018-06-10T22:12:05.002Z,20.70
2018-06-10T22:14:34.167Z,20.77
2018-06-10T22:17:03.114Z,20.33
2018-06-10T22:19:31.600Z,20.47
2018-06-10T22:22:00.385Z,20.23
2018-06-10T22:24:29.950Z,20.30
2018-06-10T22:26:59.052Z,19.93
2018-06-10T22:29:28.047Z,19.23
2018-06-10T22:31:56.828Z,18.93
2018-06-10T22:34:25.651Z,19.50
2018-06-10T22:36:54.659Z,19.10
2018-06-10T22:39:23.380Z,19.40
2018-06-10T22:41:52.119Z,20.50
2018-06-10T22:44:20.945Z,22.20
2018-06-10T22:46:50.013Z,21.50
2018-06-10T22:49:18.671Z,21.80
2018-06-10T22:51:47.687Z,20.93
2018-06-10T22:54:27.842Z,20.90
2018-06-10T22:56:56.644Z,22.60
2018-06-10T22:59:25.395Z,20.97
2018-06-10T23:01:54.403Z,21.70
2018-06-10T23:04:23.270Z,21.20
2018-06-10T23:06:52.401Z,21.77
2018-06-10T23:09:21.049Z,19.87
2018-06-10T23:11:49.736Z,22.13
2018-06-10T23:14:18.456Z,22.70
2018-06-10T23:16:47.245Z,22.70
2018-06-10T23:19:16.103Z,22.90
2018-06-10T23:21:44.991Z,23.03
2018-06-10T23:24:13.736Z,23.33
2018-06-10T23:26:42.775Z,23.90
2018-06-10T23:29:11.871Z,24.03
2018-06-10T23:31:40.689Z,22.30
2018-06-10T23:34:09.572Z,22.90
2018-06-10T23:36:38.493Z,22.00
2018-06-10T23:39:08.181Z,22.63
2018-06-10T23:41:37.098Z,23.03
2018-06-10T23:44:05.886Z,24.27
2018-06-10T23:46:34.620Z,25.67
2018-06-10T23:49:03.541Z,24.03
2018-06-10T23:51:32.306Z,24.03
2018-06-10T23:54:01.000Z,24.83
2018-06-10T23:56:30.083Z,25.07
2018-06-10T23:58:58.995Z,25.13
